Bashaw, Canada
Current Conditions -  °F | °C
As of 6:45 AM on Wednesday 26 Nov 2014 (Local Time) from CYQF Reporting Station
Haze Haze  
Wind Chill: 18°   Ceiling: 15000
Heat Index: 18°   Visibility: 5mi
Dew Point: 16°   Wind: 0mph
Humidity: 93%   Direction: NA
Pressure: 30.11"   Gusts: NA
Location:  52.58°N, 112.97°W
Report Text: CYQF 261345Z 00000KT 5SM BR SCT065 BKN150 M08/M09 A3011 RMK SC3AC4 SLP252
Loading
Personal Weather Stations






























Interactive Weather Map New forecast layout! Learn more

10-Day Weather Forecast

Advertisements
Track Severe Weather on mobile